Time;durP1;ratioP1;P1;durP2;ratioP2;P2;SDS_P1;SDS_P2;PMS_P1;PMS_P2;Temp;Humidity;BMP_temperature;BMP_pressure;BME280_temperature;BME280_humidity;BME280_pressure;Samples;Min_cycle;Max_cycle;Signal;HPM_P1;HPM_P2
2023/12/16 00:01:33;;;;;;;3.08;2.20;;;12.00;99.90;;;;;;5011873;28;20029;-43
2023/12/16 00:03:59;;;;;;;2.65;1.85;;;12.00;99.90;;;;;;5012304;28;20473;-44
2023/12/16 00:06:24;;;;;;;2.35;1.95;;;12.00;99.90;;;;;;5010242;28;20030;-44
2023/12/16 00:08:50;;;;;;;2.85;1.95;;;12.00;99.90;;;;;;5011826;28;20030;-44
2023/12/16 00:11:16;;;;;;;2.97;2.20;;;12.00;99.90;;;;;;5013070;28;20026;-41
2023/12/16 00:13:41;;;;;;;3.88;2.20;;;12.00;99.90;;;;;;5011560;28;20036;-43
2023/12/16 00:16:07;;;;;;;3.05;2.30;;;12.00;99.90;;;;;;5011384;28;20041;-44
2023/12/16 00:18:36;;;;;;;2.75;2.03;;;12.00;99.90;;;;;;5012175;28;20123;-42
2023/12/16 00:21:02;;;;;;;3.35;2.40;;;11.90;99.90;;;;;;5012863;28;20014;-44
2023/12/16 00:23:27;;;;;;;2.53;1.92;;;11.90;99.90;;;;;;5012741;28;20165;-44
2023/12/16 00:25:53;;;;;;;2.97;2.13;;;11.90;99.90;;;;;;5012099;28;20554;-44
2023/12/16 00:28:18;;;;;;;3.25;2.30;;;11.90;99.90;;;;;;5012636;28;20040;-41
2023/12/16 00:30:44;;;;;;;2.72;1.80;;;12.00;99.90;;;;;;5013144;28;20034;-44
2023/12/16 00:33:10;;;;;;;2.45;1.80;;;11.90;99.90;;;;;;5013073;28;20219;-44
2023/12/16 00:35:35;;;;;;;3.47;2.28;;;12.00;99.90;;;;;;5012160;28;20021;-44
2023/12/16 00:38:01;;;;;;;2.63;1.95;;;11.90;99.90;;;;;;5012062;28;20480;-44
2023/12/16 00:40:27;;;;;;;2.67;1.90;;;11.90;99.90;;;;;;5011294;28;20484;-40
2023/12/16 00:42:52;;;;;;;2.33;1.90;;;12.00;99.90;;;;;;5012417;28;20057;-44
2023/12/16 00:45:18;;;;;;;2.95;1.80;;;11.90;99.90;;;;;;5011729;28;20373;-43
2023/12/16 00:47:44;;;;;;;3.58;2.10;;;11.90;99.90;;;;;;5012526;28;20531;-44
2023/12/16 00:50:09;;;;;;;2.97;2.10;;;11.90;99.90;;;;;;5011186;28;20034;-44
2023/12/16 00:52:35;;;;;;;2.65;1.92;;;11.90;99.90;;;;;;5011159;28;20422;-44
2023/12/16 00:55:01;;;;;;;3.78;2.35;;;11.90;99.90;;;;;;5012587;28;20037;-44
2023/12/16 00:57:26;;;;;;;2.95;2.20;;;11.90;99.90;;;;;;5011962;28;20064;-42
2023/12/16 00:59:52;;;;;;;3.22;2.40;;;11.90;99.90;;;;;;5013147;28;20053;-44
2023/12/16 01:02:18;;;;;;;3.47;2.20;;;11.90;99.90;;;;;;5011699;28;20300;-44
2023/12/16 01:04:43;;;;;;;2.13;1.80;;;11.90;99.90;;;;;;5012130;28;20101;-44
2023/12/16 01:07:10;;;;;;;3.53;1.70;;;11.90;99.90;;;;;;5011388;28;20022;-43
2023/12/16 01:09:35;;;;;;;3.40;1.90;;;11.90;99.90;;;;;;5011681;28;20029;-42
2023/12/16 01:12:02;;;;;;;2.92;1.95;;;11.90;99.90;;;;;;5011946;28;20022;-44
2023/12/16 01:14:27;;;;;;;2.83;2.00;;;11.90;99.90;;;;;;5012050;28;20388;-44
2023/12/16 01:16:53;;;;;;;3.42;1.92;;;11.90;99.90;;;;;;5012646;28;20030;-42
2023/12/16 01:19:19;;;;;;;2.72;1.90;;;11.90;99.90;;;;;;5011382;28;20034;-44
2023/12/16 01:21:46;;;;;;;2.40;1.88;;;11.90;99.90;;;;;;5010687;28;20026;-43
2023/12/16 01:24:12;;;;;;;2.88;2.00;;;11.90;99.90;;;;;;5011961;28;20502;-44
2023/12/16 01:26:37;;;;;;;2.80;1.88;;;11.90;99.90;;;;;;5010858;28;20480;-44
2023/12/16 01:29:03;;;;;;;4.28;2.00;;;11.90;99.90;;;;;;5012928;28;20034;-44
2023/12/16 01:31:28;;;;;;;2.90;1.88;;;11.90;99.90;;;;;;5015737;28;20064;-40
2023/12/16 01:33:54;;;;;;;3.28;2.00;;;11.90;99.90;;;;;;5014826;28;20109;-44
2023/12/16 01:36:20;;;;;;;2.83;2.05;;;11.90;99.90;;;;;;5014126;28;20221;-44
2023/12/16 01:38:46;;;;;;;2.88;1.77;;;11.90;99.90;;;;;;5014644;28;20037;-43
2023/12/16 01:41:11;;;;;;;2.35;1.60;;;11.90;99.90;;;;;;5014409;28;20026;-44
2023/12/16 01:43:37;;;;;;;2.13;1.70;;;11.80;99.90;;;;;;5014217;28;20068;-44
2023/12/16 01:46:04;;;;;;;2.20;1.90;;;11.80;99.90;;;;;;5014033;28;20408;-44
2023/12/16 01:48:34;;;;;;;2.92;2.00;;;11.80;99.90;;;;;;5015403;28;20030;-44
2023/12/16 01:51:01;;;;;;;2.22;1.77;;;11.80;99.90;;;;;;5015607;28;20045;-44
2023/12/16 01:53:27;;;;;;;2.53;1.73;;;11.80;99.90;;;;;;5015001;28;20030;-42
2023/12/16 01:55:54;;;;;;;2.17;1.50;;;11.80;99.90;;;;;;5015016;28;20030;-44
2023/12/16 01:58:20;;;;;;;2.40;1.70;;;11.80;99.90;;;;;;5015233;28;20036;-44
2023/12/16 02:00:48;;;;;;;3.20;1.80;;;11.80;99.90;;;;;;5014572;28;20101;-44
2023/12/16 02:03:14;;;;;;;1.75;1.50;;;11.80;99.90;;;;;;5014632;28;20025;-44
2023/12/16 02:05:41;;;;;;;3.10;1.98;;;11.80;99.90;;;;;;5013860;28;20026;-44
2023/12/16 02:08:07;;;;;;;2.90;1.98;;;11.80;99.90;;;;;;5014862;28;20021;-42
2023/12/16 02:10:33;;;;;;;2.72;1.65;;;11.80;99.90;;;;;;5014749;28;20022;-43
2023/12/16 02:13:02;;;;;;;2.20;1.67;;;11.80;99.90;;;;;;5015084;28;20545;-42
2023/12/16 02:15:28;;;;;;;3.20;2.00;;;11.80;99.90;;;;;;5014112;28;20064;-44
2023/12/16 02:17:53;;;;;;;2.40;1.83;;;11.80;99.90;;;;;;5013225;28;20061;-44
2023/12/16 02:20:19;;;;;;;2.42;1.77;;;11.80;99.90;;;;;;5013449;28;20018;-43
2023/12/16 02:22:46;;;;;;;2.80;1.88;;;11.80;99.90;;;;;;5014455;28;20092;-44
2023/12/16 02:25:14;;;;;;;2.75;1.77;;;11.80;99.90;;;;;;5013547;28;20116;-42
2023/12/16 02:27:41;;;;;;;2.50;1.73;;;11.80;99.90;;;;;;5013224;28;20037;-42
2023/12/16 02:30:08;;;;;;;1.88;1.67;;;11.80;99.90;;;;;;5013267;28;20029;-43
2023/12/16 02:32:34;;;;;;;2.00;1.70;;;11.80;99.90;;;;;;5013196;28;20077;-44
2023/12/16 02:35:00;;;;;;;1.52;1.42;;;11.80;99.90;;;;;;5013522;28;20025;-44
2023/12/16 02:37:26;;;;;;;2.38;1.80;;;11.80;99.90;;;;;;5014628;28;20483;-44
2023/12/16 02:39:52;;;;;;;2.10;1.70;;;11.80;99.90;;;;;;5013269;28;20049;-40
2023/12/16 02:42:17;;;;;;;4.63;1.90;;;11.80;99.90;;;;;;5013525;28;20053;-44
2023/12/16 02:44:43;;;;;;;2.03;1.60;;;11.80;99.90;;;;;;5013460;28;20477;-44
2023/12/16 02:47:09;;;;;;;2.22;1.90;;;11.80;99.90;;;;;;5013430;28;20048;-44
2023/12/16 02:49:34;;;;;;;1.85;1.42;;;11.80;99.90;;;;;;5013678;28;20022;-44
2023/12/16 02:52:00;;;;;;;2.35;1.83;;;11.80;99.90;;;;;;5012790;28;20155;-44
2023/12/16 02:54:27;;;;;;;2.45;1.75;;;11.80;99.90;;;;;;5012840;28;20037;-44
2023/12/16 02:56:52;;;;;;;2.15;1.60;;;11.80;99.90;;;;;;5012176;28;20072;-44
2023/12/16 02:59:18;;;;;;;3.08;1.73;;;11.70;99.90;;;;;;5013753;28;20026;-43
2023/12/16 03:01:43;;;;;;;2.50;1.40;;;11.80;99.90;;;;;;5012573;28;20149;-43
2023/12/16 03:04:09;;;;;;;2.97;1.55;;;11.80;99.90;;;;;;5012693;28;20048;-44
2023/12/16 03:06:36;;;;;;;2.38;1.45;;;11.80;99.90;;;;;;5012805;28;20045;-44
2023/12/16 03:09:02;;;;;;;2.42;1.58;;;11.80;99.90;;;;;;5013724;28;20021;-44
2023/12/16 03:11:28;;;;;;;2.30;1.50;;;11.80;99.90;;;;;;5012975;28;20034;-44
2023/12/16 03:13:53;;;;;;;2.38;1.67;;;11.80;99.90;;;;;;5012953;28;20048;-42
2023/12/16 03:16:19;;;;;;;2.70;1.52;;;11.90;99.90;;;;;;5012280;28;20502;-44
2023/12/16 03:18:45;;;;;;;2.10;1.50;;;11.90;99.90;;;;;;5012304;28;20460;-44
2023/12/16 03:21:10;;;;;;;2.50;1.58;;;11.90;99.90;;;;;;5014161;28;20029;-44
2023/12/16 03:23:36;;;;;;;2.28;1.73;;;11.90;99.90;;;;;;5012502;28;20462;-43
2023/12/16 03:26:02;;;;;;;2.60;1.65;;;12.00;99.90;;;;;;5012216;28;20170;-44
2023/12/16 03:28:28;;;;;;;1.75;1.40;;;12.00;99.90;;;;;;5012175;28;20080;-44
2023/12/16 03:30:54;;;;;;;2.38;1.50;;;12.00;99.90;;;;;;5012758;28;20563;-44
2023/12/16 03:33:20;;;;;;;2.85;1.40;;;12.00;99.90;;;;;;5012452;28;20057;-44
2023/12/16 03:35:45;;;;;;;1.92;1.40;;;12.10;99.90;;;;;;5012218;28;20022;-44
2023/12/16 03:38:11;;;;;;;1.73;1.40;;;12.10;99.90;;;;;;5012770;28;20038;-44
2023/12/16 03:40:36;;;;;;;1.98;1.48;;;12.10;99.90;;;;;;5012626;28;20030;-43
2023/12/16 03:43:02;;;;;;;2.08;1.58;;;12.10;99.90;;;;;;5012786;28;20033;-42
2023/12/16 03:45:27;;;;;;;1.92;1.35;;;12.10;99.90;;;;;;5012028;28;20080;-44
2023/12/16 03:47:53;;;;;;;1.92;1.65;;;12.10;99.90;;;;;;5013251;28;20552;-42
2023/12/16 03:50:19;;;;;;;1.80;1.20;;;12.10;99.90;;;;;;5012422;28;20026;-44
2023/12/16 03:52:45;;;;;;;1.67;1.30;;;12.10;99.90;;;;;;5011740;28;20069;-43
2023/12/16 03:55:11;;;;;;;2.10;1.50;;;12.10;99.90;;;;;;5012455;28;20054;-43
2023/12/16 03:57:37;;;;;;;1.85;1.50;;;12.10;99.90;;;;;;5012812;28;20022;-44
2023/12/16 04:00:03;;;;;;;1.73;1.30;;;12.10;99.90;;;;;;5011892;28;20549;-42
2023/12/16 04:02:28;;;;;;;1.77;1.40;;;12.10;99.90;;;;;;5011734;28;20029;-44
2023/12/16 04:04:54;;;;;;;1.85;1.30;;;12.10;99.90;;;;;;5011514;28;20164;-44
2023/12/16 04:07:19;;;;;;;1.98;1.58;;;12.10;99.90;;;;;;5012465;28;20153;-42
2023/12/16 04:09:45;;;;;;;1.95;1.52;;;12.10;99.90;;;;;;5012574;28;20444;-44
2023/12/16 04:12:11;;;;;;;1.63;1.33;;;12.10;99.90;;;;;;5011967;28;20030;-44
2023/12/16 04:14:40;;;;;;;1.92;1.48;;;12.10;99.90;;;;;;5011975;28;20018;-44
2023/12/16 04:17:06;;;;;;;1.88;1.40;;;12.10;99.90;;;;;;5011957;28;20518;-43
2023/12/16 04:19:33;;;;;;;3.40;1.27;;;12.10;99.90;;;;;;5011442;28;20034;-42
2023/12/16 04:21:58;;;;;;;1.55;1.45;;;12.10;99.90;;;;;;5012012;28;20495;-44
2023/12/16 04:24:24;;;;;;;1.70;1.40;;;12.10;99.90;;;;;;5012265;28;20030;-44
2023/12/16 04:26:49;;;;;;;1.95;1.30;;;12.10;99.90;;;;;;5011441;28;20022;-43
2023/12/16 04:29:16;;;;;;;1.60;1.27;;;12.00;99.90;;;;;;5012874;28;20049;-44
2023/12/16 04:31:42;;;;;;;1.70;1.23;;;12.10;99.90;;;;;;5011905;28;20064;-44
2023/12/16 04:34:08;;;;;;;1.80;1.27;;;12.10;99.90;;;;;;5011211;28;20055;-44
2023/12/16 04:36:33;;;;;;;1.48;1.30;;;12.10;99.90;;;;;;5012004;28;20033;-44
2023/12/16 04:39:00;;;;;;;2.03;1.30;;;12.10;99.90;;;;;;5012197;28;20034;-44
2023/12/16 04:41:25;;;;;;;1.92;1.30;;;12.00;99.90;;;;;;5011559;28;20028;-44
2023/12/16 04:43:53;;;;;;;1.58;1.08;;;12.00;99.90;;;;;;5011631;28;20026;-44
2023/12/16 04:46:21;;;;;;;1.35;1.17;;;12.00;99.90;;;;;;5011501;28;20045;-44
2023/12/16 04:48:47;;;;;;;1.77;1.40;;;12.00;99.90;;;;;;5011180;28;20033;-44
2023/12/16 04:51:13;;;;;;;1.42;1.27;;;12.00;99.90;;;;;;5011655;28;20034;-44
2023/12/16 04:53:38;;;;;;;2.28;1.42;;;12.00;99.90;;;;;;5013168;28;20026;-43
2023/12/16 04:56:05;;;;;;;2.08;1.30;;;12.00;99.90;;;;;;5012935;28;20412;-42
2023/12/16 04:58:30;;;;;;;2.55;1.30;;;12.00;99.90;;;;;;5012658;28;20022;-44
2023/12/16 05:00:57;;;;;;;1.52;1.13;;;12.00;99.90;;;;;;5012052;28;20032;-43
2023/12/16 05:03:23;;;;;;;2.03;1.33;;;11.90;99.90;;;;;;5013196;28;20022;-44
2023/12/16 05:05:49;;;;;;;1.77;1.20;;;11.90;99.90;;;;;;5016322;28;20030;-44
2023/12/16 05:08:14;;;;;;;1.55;1.30;;;11.90;99.90;;;;;;5016062;28;20037;-43
2023/12/16 05:10:40;;;;;;;1.20;1.08;;;11.90;99.90;;;;;;5016421;28;20030;-44
2023/12/16 05:13:12;;;;;;;1.70;1.10;;;11.90;99.90;;;;;;5016425;28;20563;-43
2023/12/16 05:15:38;;;;;;;1.20;1.10;;;11.90;99.90;;;;;;5015438;28;20076;-41
2023/12/16 05:18:06;;;;;;;1.25;0.90;;;11.90;99.90;;;;;;5016532;28;20041;-44
2023/12/16 05:20:32;;;;;;;1.67;1.30;;;11.90;99.90;;;;;;5015932;28;20098;-44
2023/12/16 05:22:59;;;;;;;1.15;1.05;;;11.90;99.90;;;;;;5014541;28;20053;-44
2023/12/16 05:25:28;;;;;;;1.30;1.10;;;11.90;99.90;;;;;;5014753;28;20028;-44
2023/12/16 05:27:54;;;;;;;1.50;1.23;;;11.90;99.90;;;;;;5014342;28;20036;-44
2023/12/16 05:30:20;;;;;;;1.20;1.02;;;11.90;99.90;;;;;;5015042;28;20034;-44
2023/12/16 05:32:47;;;;;;;1.60;1.17;;;11.90;99.90;;;;;;5016164;28;20080;-43
2023/12/16 05:35:13;;;;;;;1.83;1.10;;;11.90;99.90;;;;;;5014325;28;20057;-44
2023/12/16 05:37:39;;;;;;;1.63;1.20;;;11.90;99.90;;;;;;5014075;28;20105;-44
2023/12/16 05:40:05;;;;;;;3.67;1.15;;;11.80;99.90;;;;;;5015286;28;20029;-44
2023/12/16 05:42:31;;;;;;;1.17;1.00;;;11.90;99.90;;;;;;5014260;28;20026;-44
2023/12/16 05:44:56;;;;;;;2.85;1.30;;;11.80;99.90;;;;;;5014058;28;20109;-44
2023/12/16 05:47:22;;;;;;;1.52;1.25;;;11.80;99.90;;;;;;5013961;28;20058;-43
2023/12/16 05:49:47;;;;;;;1.77;1.23;;;11.80;99.90;;;;;;5014540;28;20124;-43
2023/12/16 05:52:14;;;;;;;1.17;1.02;;;11.80;99.90;;;;;;5014065;28;20022;-44
2023/12/16 05:54:39;;;;;;;1.20;1.10;;;11.80;99.90;;;;;;5013981;28;20377;-42
2023/12/16 05:57:05;;;;;;;1.67;1.25;;;11.80;99.90;;;;;;5014229;28;20098;-44
2023/12/16 05:59:31;;;;;;;1.42;1.20;;;11.80;99.90;;;;;;5014092;28;20022;-44
2023/12/16 06:01:57;;;;;;;1.17;0.98;;;11.80;99.90;;;;;;5014962;28;20030;-44
2023/12/16 06:04:23;;;;;;;1.30;1.00;;;11.80;99.90;;;;;;5014057;28;20084;-44
2023/12/16 06:06:48;;;;;;;2.22;1.13;;;11.80;99.90;;;;;;5013971;28;20033;-41
2023/12/16 06:09:14;;;;;;;1.20;1.10;;;11.80;99.90;;;;;;5013931;28;20105;-43
2023/12/16 06:11:39;;;;;;;1.25;1.15;;;11.80;99.90;;;;;;5013649;28;20028;-44
2023/12/16 06:14:05;;;;;;;1.42;1.00;;;11.80;99.90;;;;;;5013335;28;20388;-44
2023/12/16 06:16:31;;;;;;;1.30;1.20;;;11.70;99.90;;;;;;5013818;28;20030;-44
2023/12/16 06:18:57;;;;;;;1.50;1.13;;;11.80;99.90;;;;;;5013400;28;20032;-44
2023/12/16 06:21:23;;;;;;;1.40;1.30;;;11.70;99.90;;;;;;5013734;28;20113;-44
2023/12/16 06:23:48;;;;;;;1.20;1.10;;;11.70;99.90;;;;;;5015231;28;20157;-44
2023/12/16 06:26:14;;;;;;;1.27;0.90;;;11.70;99.90;;;;;;5016322;28;20403;-44
2023/12/16 06:28:39;;;;;;;1.60;1.20;;;11.70;99.90;;;;;;5013477;28;20021;-44
2023/12/16 06:31:05;;;;;;;1.00;0.90;;;11.70;99.90;;;;;;5013982;28;20512;-43
2023/12/16 06:33:31;;;;;;;1.25;1.00;;;11.70;99.90;;;;;;5013139;28;20026;-44
2023/12/16 06:35:56;;;;;;;1.30;1.10;;;11.70;99.90;;;;;;5014356;28;20030;-43
2023/12/16 06:38:22;;;;;;;1.25;1.00;;;11.70;99.90;;;;;;5014098;28;20555;-44
2023/12/16 06:40:47;;;;;;;1.70;1.33;;;11.70;99.90;;;;;;5013078;28;20060;-44
2023/12/16 06:43:13;;;;;;;1.23;1.00;;;11.70;99.90;;;;;;5013751;28;20018;-44
2023/12/16 06:45:39;;;;;;;1.52;1.05;;;11.70;99.90;;;;;;5013123;28;20381;-44
2023/12/16 06:48:05;;;;;;;1.30;1.20;;;11.70;99.90;;;;;;5012904;28;20072;-44
2023/12/16 06:50:30;;;;;;;1.48;1.08;;;11.70;99.90;;;;;;5015055;28;20040;-44
2023/12/16 06:52:56;;;;;;;1.48;1.20;;;11.70;99.90;;;;;;5013305;28;20032;-44
2023/12/16 06:55:21;;;;;;;1.65;1.17;;;11.70;99.90;;;;;;5013283;28;20515;-44
2023/12/16 06:57:47;;;;;;;1.67;1.20;;;11.70;99.90;;;;;;5012514;28;20022;-44
2023/12/16 07:00:13;;;;;;;1.48;1.20;;;11.70;99.90;;;;;;5012725;28;20478;-43
2023/12/16 07:02:41;;;;;;;1.50;1.08;;;11.60;99.90;;;;;;5012805;28;20080;-44
2023/12/16 07:05:09;;;;;;;1.50;1.10;;;11.60;99.90;;;;;;5013079;28;20430;-44
2023/12/16 07:07:36;;;;;;;2.00;1.33;;;11.60;99.90;;;;;;5012490;28;20030;-43
2023/12/16 07:10:01;;;;;;;1.40;1.10;;;11.60;99.90;;;;;;5013263;28;20018;-44
2023/12/16 07:12:27;;;;;;;1.77;1.20;;;11.70;99.90;;;;;;5012412;28;20028;-43
2023/12/16 07:14:53;;;;;;;3.40;1.15;;;11.60;99.90;;;;;;5012462;28;20060;-44
2023/12/16 07:17:19;;;;;;;2.25;1.30;;;11.60;99.90;;;;;;5013333;28;20464;-44
2023/12/16 07:19:44;;;;;;;3.10;1.67;;;11.60;99.90;;;;;;5013870;28;20026;-40
2023/12/16 07:22:10;;;;;;;1.92;1.70;;;11.70;99.90;;;;;;5012436;28;20507;-42
2023/12/16 07:24:35;;;;;;;2.55;2.05;;;11.60;99.90;;;;;;5013367;28;20818;-43
2023/12/16 07:27:01;;;;;;;2.20;1.63;;;11.70;99.90;;;;;;5011558;28;20034;-44
2023/12/16 07:29:27;;;;;;;2.22;1.73;;;11.60;99.90;;;;;;5014256;28;20026;-44
2023/12/16 07:31:52;;;;;;;1.80;1.40;;;11.60;99.90;;;;;;5012595;28;20400;-44
2023/12/16 07:34:18;;;;;;;1.55;1.40;;;11.60;99.90;;;;;;5013384;28;20473;-44
2023/12/16 07:36:44;;;;;;;1.98;1.55;;;11.60;99.90;;;;;;5013252;28;20022;-43
2023/12/16 07:39:10;;;;;;;1.88;1.45;;;11.60;99.90;;;;;;5012684;28;20030;-42
2023/12/16 07:41:36;;;;;;;1.55;1.40;;;11.60;99.90;;;;;;5012746;28;20022;-44
2023/12/16 07:44:02;;;;;;;2.25;1.50;;;11.60;99.90;;;;;;5012358;28;20028;-44
2023/12/16 07:46:28;;;;;;;2.05;1.63;;;11.60;99.90;;;;;;5011886;28;20465;-44
2023/12/16 07:48:53;;;;;;;2.28;1.48;;;11.60;99.90;;;;;;5012629;28;20117;-41
2023/12/16 07:51:19;;;;;;;1.83;1.30;;;11.60;99.90;;;;;;5012955;28;20497;-44
2023/12/16 07:53:48;;;;;;;1.58;1.42;;;11.60;99.90;;;;;;5012159;28;20057;-43
2023/12/16 07:56:21;;;;;;;4.32;1.90;;;11.70;99.90;;;;;;5011706;28;20033;-41
2023/12/16 07:58:46;;;;;;;3.22;1.75;;;11.70;99.90;;;;;;5011616;28;20022;-44
2023/12/16 08:01:13;;;;;;;2.28;1.80;;;11.60;99.90;;;;;;5011870;28;20230;-42
2023/12/16 08:03:39;;;;;;;2.40;1.98;;;11.60;99.90;;;;;;5011813;28;20076;-44
2023/12/16 08:06:05;;;;;;;2.10;1.73;;;11.70;99.90;;;;;;5010636;28;20423;-42
2023/12/16 08:08:31;;;;;;;2.72;1.70;;;11.70;99.90;;;;;;5011416;28;20033;-44
2023/12/16 08:10:56;;;;;;;1.63;1.52;;;11.70;99.90;;;;;;5010227;28;20029;-45
2023/12/16 08:13:22;;;;;;;2.17;1.77;;;11.70;99.90;;;;;;5011636;28;20030;-43
2023/12/16 08:15:48;;;;;;;2.47;1.73;;;11.80;99.90;;;;;;5011524;28;20053;-44
2023/12/16 08:18:13;;;;;;;3.22;2.05;;;11.80;99.90;;;;;;5012712;28;20033;-42
2023/12/16 08:20:39;;;;;;;3.30;2.38;;;11.90;99.90;;;;;;5016379;28;20053;-44
2023/12/16 08:23:05;;;;;;;2.40;2.17;;;11.90;99.90;;;;;;5011597;28;20048;-41
2023/12/16 08:25:31;;;;;;;2.60;2.10;;;11.90;99.90;;;;;;5011446;28;20022;-44
2023/12/16 08:27:57;;;;;;;2.95;2.05;;;11.90;99.90;;;;;;5011354;28;20057;-44
2023/12/16 08:30:23;;;;;;;2.35;2.10;;;11.90;99.90;;;;;;5011347;28;20030;-44
2023/12/16 08:32:48;;;;;;;3.83;2.20;;;11.90;99.90;;;;;;5011717;28;20034;-44
2023/12/16 08:35:14;;;;;;;4.50;2.35;;;12.00;99.90;;;;;;5011369;28;20472;-40
2023/12/16 08:37:40;;;;;;;2.42;1.90;;;12.00;99.90;;;;;;5013930;28;20081;-44
2023/12/16 08:40:07;;;;;;;3.58;2.10;;;12.10;99.90;;;;;;5015645;28;20053;-43
2023/12/16 08:42:32;;;;;;;3.25;2.05;;;12.10;99.90;;;;;;5015796;28;20402;-43
2023/12/16 08:44:58;;;;;;;2.85;2.00;;;12.10;99.90;;;;;;5016149;28;20032;-44
2023/12/16 08:47:24;;;;;;;2.58;1.95;;;12.10;99.90;;;;;;5015143;28;20354;-41
2023/12/16 08:49:49;;;;;;;2.53;2.10;;;12.20;99.90;;;;;;5015216;28;20109;-42
2023/12/16 08:52:15;;;;;;;2.88;1.90;;;12.20;99.90;;;;;;5014984;28;20033;-43
2023/12/16 08:54:41;;;;;;;2.63;2.08;;;12.30;99.90;;;;;;5013752;28;20036;-44
2023/12/16 08:57:07;;;;;;;1.98;1.73;;;12.30;99.90;;;;;;5015583;28;20029;-43
2023/12/16 08:59:32;;;;;;;3.33;2.13;;;12.30;99.90;;;;;;5015400;28;20033;-44
2023/12/16 09:01:58;;;;;;;2.80;2.03;;;12.40;99.90;;;;;;5015245;28;20029;-44
2023/12/16 09:04:23;;;;;;;1.98;1.77;;;12.40;99.90;;;;;;5015126;28;20373;-44
2023/12/16 09:06:49;;;;;;;4.93;2.20;;;12.40;99.90;;;;;;5016279;28;20040;-44
2023/12/16 09:09:14;;;;;;;5.25;2.03;;;12.50;99.90;;;;;;5015997;28;20049;-43
2023/12/16 09:11:42;;;;;;;3.83;2.10;;;12.50;99.90;;;;;;5016522;28;20061;-41
2023/12/16 09:14:08;;;;;;;2.47;1.98;;;12.50;99.90;;;;;;5015182;28;20038;-42
2023/12/16 09:16:34;;;;;;;2.60;2.00;;;12.60;99.90;;;;;;5015034;28;20037;-40
2023/12/16 09:19:00;;;;;;;2.30;2.00;;;12.60;99.90;;;;;;5016210;28;20092;-44
2023/12/16 09:21:26;;;;;;;2.33;1.88;;;12.60;99.90;;;;;;5015119;28;20660;-40
2023/12/16 09:23:51;;;;;;;2.17;1.98;;;12.70;99.90;;;;;;5014349;28;20483;-44
2023/12/16 09:26:17;;;;;;;4.88;2.88;;;12.70;99.90;;;;;;5014877;28;20022;-44
2023/12/16 09:28:43;;;;;;;5.43;2.85;;;12.80;99.90;;;;;;5014385;28;20488;-44
2023/12/16 09:31:08;;;;;;;4.97;3.10;;;12.70;99.90;;;;;;5015383;28;20033;-44
2023/12/16 09:33:34;;;;;;;7.57;2.80;;;12.70;99.90;;;;;;5015102;28;20703;-43
2023/12/16 09:35:59;;;;;;;5.40;2.53;;;12.80;99.90;;;;;;5015306;28;20034;-42
2023/12/16 09:38:25;;;;;;;5.07;2.80;;;12.80;99.90;;;;;;5014885;28;20480;-44
2023/12/16 09:40:51;;;;;;;4.75;2.88;;;12.80;99.90;;;;;;5014508;28;20025;-44
2023/12/16 09:43:17;;;;;;;3.33;2.35;;;12.90;99.90;;;;;;5015466;28;20024;-44
2023/12/16 09:45:46;;;;;;;2.95;2.20;;;12.90;99.90;;;;;;5014952;28;20395;-42
2023/12/16 09:48:14;;;;;;;3.35;2.53;;;12.90;99.90;;;;;;5013894;28;20046;-44
2023/12/16 09:50:41;;;;;;;3.95;2.60;;;13.00;99.90;;;;;;5015387;28;20077;-45
2023/12/16 09:53:07;;;;;;;4.40;2.80;;;13.00;99.90;;;;;;5014925;28;20037;-44
2023/12/16 09:55:33;;;;;;;3.97;2.50;;;13.10;99.90;;;;;;5014175;28;20026;-44
2023/12/16 09:57:59;;;;;;;4.13;2.60;;;13.10;99.90;;;;;;5013863;28;20507;-44
2023/12/16 10:00:28;;;;;;;3.60;2.30;;;13.20;99.90;;;;;;5013804;28;20058;-44
2023/12/16 10:02:56;;;;;;;3.38;2.38;;;13.20;99.90;;;;;;5014717;28;20607;-44
2023/12/16 10:05:26;;;;;;;4.25;2.40;;;13.30;99.90;;;;;;5015408;28;20022;-44
2023/12/16 10:07:57;;;;;;;3.47;2.10;;;13.30;99.90;;;;;;5013616;28;20514;-44
2023/12/16 10:10:23;;;;;;;4.20;2.38;;;13.30;99.90;;;;;;5014304;28;20040;-44
2023/12/16 10:12:49;;;;;;;5.00;2.47;;;13.40;99.90;;;;;;5013893;28;20038;-44
2023/12/16 10:15:31;;;;;;;3.40;2.15;;;13.40;99.90;;;;;;5013773;28;20025;-44
2023/12/16 10:18:02;;;;;;;3.05;2.00;;;13.40;99.90;;;;;;5014529;28;20026;-45
2023/12/16 10:20:28;;;;;;;3.10;2.20;;;13.50;99.90;;;;;;5014503;28;20056;-44
2023/12/16 10:22:54;;;;;;;5.75;2.40;;;13.50;99.90;;;;;;5013947;28;20038;-42
2023/12/16 10:25:19;;;;;;;2.90;2.25;;;13.50;99.90;;;;;;5013653;28;20029;-44
2023/12/16 10:27:46;;;;;;;2.75;1.80;;;13.60;99.90;;;;;;5013706;28;20028;-44
2023/12/16 10:30:12;;;;;;;3.25;2.03;;;13.60;99.90;;;;;;5013607;28;20033;-45
2023/12/16 10:32:39;;;;;;;2.72;2.15;;;13.60;99.90;;;;;;5013143;28;20025;-44
2023/12/16 10:35:06;;;;;;;3.33;2.33;;;13.60;99.90;;;;;;5014475;28;20395;-43
2023/12/16 10:37:32;;;;;;;2.92;2.10;;;13.60;99.90;;;;;;5013134;28;20041;-45
2023/12/16 10:39:58;;;;;;;3.67;2.00;;;13.70;99.90;;;;;;5013105;28;20029;-44
2023/12/16 10:42:24;;;;;;;3.78;2.10;;;13.70;99.90;;;;;;5013131;28;20022;-43
2023/12/16 10:44:52;;;;;;;2.58;1.65;;;13.70;99.90;;;;;;5014904;28;20061;-45
2023/12/16 10:47:19;;;;;;;2.85;2.10;;;13.80;99.90;;;;;;5013103;28;20026;-44
2023/12/16 10:49:46;;;;;;;2.63;1.92;;;13.80;99.90;;;;;;5013436;28;20104;-43
2023/12/16 10:52:13;;;;;;;3.67;2.35;;;13.80;99.90;;;;;;5013202;28;20030;-43
2023/12/16 10:54:44;;;;;;;3.53;2.10;;;13.80;99.90;;;;;;5012886;28;20121;-43
2023/12/16 10:57:24;;;;;;;3.10;2.10;;;13.90;99.90;;;;;;5013969;28;20040;-43
2023/12/16 11:00:12;;;;;;;3.22;2.00;;;13.90;99.90;;;;;;5014025;28;20084;-44
2023/12/16 11:03:04;;;;;;;2.88;1.73;;;14.00;99.90;;;;;;5011895;28;20034;-44
2023/12/16 11:05:34;;;;;;;2.80;1.90;;;14.00;99.90;;;;;;5013262;28;20040;-44
2023/12/16 11:08:04;;;;;;;2.95;1.90;;;14.00;99.90;;;;;;5011754;28;20072;-45
2023/12/16 11:10:33;;;;;;;3.38;1.95;;;14.10;99.90;;;;;;5013816;28;20033;-44
2023/12/16 11:13:03;;;;;;;2.63;1.70;;;14.10;99.90;;;;;;5013097;28;20513;-44
2023/12/16 11:15:34;;;;;;;3.13;2.03;;;14.10;99.90;;;;;;5012215;28;20030;-44
2023/12/16 11:18:21;;;;;;;2.78;1.95;;;14.10;99.90;;;;;;5013060;28;20388;-44
2023/12/16 11:20:50;;;;;;;2.40;1.70;;;14.20;99.90;;;;;;5013618;28;20464;-45
2023/12/16 11:23:16;;;;;;;2.47;1.70;;;14.20;99.90;;;;;;5012788;28;20113;-44
2023/12/16 11:25:42;;;;;;;2.40;1.75;;;14.30;99.90;;;;;;5012355;28;20080;-44
2023/12/16 11:28:13;;;;;;;2.33;1.67;;;14.30;99.90;;;;;;5013338;28;20029;-44
2023/12/16 11:30:41;;;;;;;2.05;1.50;;;14.40;99.90;;;;;;5012890;28;20018;-45
2023/12/16 11:33:07;;;;;;;3.58;1.50;;;14.30;99.90;;;;;;5013483;28;20054;-44
2023/12/16 11:35:35;;;;;;;2.42;1.60;;;14.40;99.90;;;;;;5013760;28;20054;-44
2023/12/16 11:38:02;;;;;;;2.22;1.70;;;14.40;99.90;;;;;;5011742;28;20026;-43
2023/12/16 11:40:49;;;;;;;2.58;1.80;;;14.40;99.90;;;;;;5012238;28;20028;-44
2023/12/16 11:43:15;;;;;;;2.13;1.70;;;14.50;99.90;;;;;;5013173;28;20029;-44
2023/12/16 11:45:43;;;;;;;4.30;1.60;;;14.50;99.90;;;;;;5012338;28;20030;-44
2023/12/16 11:48:14;;;;;;;2.42;1.67;;;14.60;99.90;;;;;;5013096;28;20369;-45
2023/12/16 11:50:41;;;;;;;3.13;2.10;;;14.60;99.90;;;;;;5012244;28;20056;-45
2023/12/16 11:53:11;;;;;;;2.30;1.77;;;14.60;99.90;;;;;;5011921;28;20033;-44
2023/12/16 11:55:37;;;;;;;2.47;1.70;;;14.70;99.90;;;;;;5011630;28;20492;-44
2023/12/16 11:58:04;;;;;;;2.03;1.48;;;14.70;99.90;;;;;;5012755;28;20502;-44
2023/12/16 12:00:30;;;;;;;3.38;1.42;;;14.70;99.90;;;;;;5011960;28;20017;-42
2023/12/16 12:02:56;;;;;;;2.58;1.55;;;14.80;99.90;;;;;;5012271;28;20032;-45
2023/12/16 12:05:22;;;;;;;2.75;1.77;;;14.80;99.90;;;;;;5012816;28;20037;-44
2023/12/16 12:07:48;;;;;;;2.53;1.83;;;14.90;99.90;;;;;;5012746;28;20022;-44
2023/12/16 12:10:14;;;;;;;3.42;1.48;;;14.90;99.80;;;;;;5012467;28;20108;-44
2023/12/16 12:12:40;;;;;;;2.83;1.70;;;14.90;99.80;;;;;;5011906;28;20101;-44
2023/12/16 12:15:07;;;;;;;2.47;1.17;;;15.00;99.80;;;;;;5010232;28;20022;-44
2023/12/16 12:17:33;;;;;;;2.17;1.42;;;15.00;99.70;;;;;;5011543;28;20045;-44
2023/12/16 12:19:59;;;;;;;4.47;1.95;;;15.10;99.60;;;;;;5011555;28;20106;-44
2023/12/16 12:22:25;;;;;;;4.07;1.88;;;15.10;99.60;;;;;;5011983;28;20084;-44
2023/12/16 12:24:51;;;;;;;3.55;1.75;;;15.20;99.60;;;;;;5011409;28;20053;-44
2023/12/16 12:27:18;;;;;;;3.30;1.45;;;15.20;99.50;;;;;;5011323;28;20415;-44
2023/12/16 12:29:59;;;;;;;2.78;1.65;;;15.30;99.40;;;;;;5012207;28;20084;-44
2023/12/16 12:32:26;;;;;;;2.35;1.35;;;15.30;99.30;;;;;;5011595;28;20025;-44
2023/12/16 12:34:59;;;;;;;1.70;1.30;;;15.30;99.30;;;;;;5011511;28;20030;-44
2023/12/16 12:37:26;;;;;;;2.50;1.55;;;15.40;99.20;;;;;;5012309;28;20026;-44
2023/12/16 12:39:52;;;;;;;1.98;1.60;;;15.50;99.10;;;;;;5012106;28;20440;-44
2023/12/16 12:42:17;;;;;;;2.78;1.60;;;15.50;99.00;;;;;;5011231;28;20417;-44
2023/12/16 12:44:52;;;;;;;2.20;1.50;;;15.60;98.90;;;;;;5012027;28;20030;-44